Kohat Weather



Kohat's Current Weather

Temprature 12o haze

haze

Rain: 0 %

Min Temprature12o
Max Temprature12o
Humidity71
Wind Speed2.1 m/h
Sun Rise07:08:57
Sun Set17:06:39
Current Time: 12-Dec-2019 01:28:25
Lat/Lon: 33.6, 71.44




Kohat's Geo Location



Kohat's Weather Forecast

Time Overall Temp Min Temp Max Temp Humidity Wind Speed Rain
12-Dec-2019 (Thu)
02:00:00 overcast clouds 11.390 11.180 11.390 56 1.24 m/h 0 %
05:00:00 overcast clouds 11.050 10.890 11.050 54 1.59 m/h 0 %
08:00:00 overcast clouds 11.540 11.440 11.540 56 0.54 m/h 0 %
11:00:00 overcast clouds 15.870 15.820 15.870 39 0.43 m/h 0 %
14:00:00 overcast clouds 16.660 16.660 16.660 38 1.77 m/h 0 %
17:00:00 overcast clouds 14.620 14.620 14.620 48 0.87 m/h 0 %
20:00:00 light rain 13.140 13.140 13.140 58 2.58 m/h 13 %
23:00:00 light rain 11.810 11.810 11.810 68 1.36 m/h 88 %
13-Dec-2019 (Fri)
02:00:00 light rain 10.140 10.140 10.140 87 1.43 m/h 150 %
05:00:00 light rain 9.880 9.880 9.880 89 0.37 m/h 231 %
08:00:00 light rain 10.500 10.500 10.500 82 0.33 m/h 50 %
11:00:00 light rain 12.370 12.370 12.370 68 1.07 m/h 13 %
14:00:00 scattered clouds 14.180 14.180 14.180 57 1.39 m/h 0 %
17:00:00 scattered clouds 13.120 13.120 13.120 63 2.75 m/h 0 %
20:00:00 clear sky 11.410 11.410 11.410 71 1.28 m/h 0 %
23:00:00 clear sky 10.260 10.260 10.260 76 0.23 m/h 0 %
14-Dec-2019 (Sat)
02:00:00 scattered clouds 9.500 9.500 9.500 79 0.68 m/h 0 %
05:00:00 scattered clouds 9.060 9.060 9.060 80 0.9 m/h 0 %
08:00:00 light rain 10.200 10.200 10.200 76 0.68 m/h 6 %
11:00:00 light rain 13.120 13.120 13.120 62 1.51 m/h 44 %
14:00:00 light rain 14.410 14.410 14.410 56 1.47 m/h 219 %
17:00:00 light rain 13.580 13.580 13.580 63 0.34 m/h 137 %
20:00:00 scattered clouds 11.500 11.500 11.500 70 0.67 m/h 0 %
23:00:00 scattered clouds 10.660 10.660 10.660 71 0.86 m/h 0 %
15-Dec-2019 (Sun)
02:00:00 clear sky 9.670 9.670 9.670 73 0.79 m/h 0 %
05:00:00 few clouds 8.910 8.910 8.910 74 1.07 m/h 0 %
08:00:00 clear sky 9.740 9.740 9.740 70 1.22 m/h 0 %
11:00:00 clear sky 14.450 14.450 14.450 44 1.15 m/h 0 %
14:00:00 clear sky 16.380 16.380 16.380 36 2.43 m/h 0 %
17:00:00 clear sky 13.330 13.330 13.330 49 1.18 m/h 0 %
20:00:00 clear sky 11.310 11.310 11.310 54 0.78 m/h 0 %
23:00:00 clear sky 10.310 10.310 10.310 51 0.96 m/h 0 %
16-Dec-2019 (Mon)
02:00:00 clear sky 9.510 9.510 9.510 40 1.59 m/h 0 %
05:00:00 clear sky 8.470 8.470 8.470 38 1.69 m/h 0 %
08:00:00 clear sky 9.010 9.010 9.010 40 1.43 m/h 0 %
11:00:00 clear sky 14.610 14.610 14.610 23 0.86 m/h 0 %
14:00:00 clear sky 16.650 16.650 16.650 21 1.63 m/h 0 %
17:00:00 clear sky 13.040 13.040 13.040 34 1.25 m/h 0 %
20:00:00 clear sky 11.590 11.590 11.590 33 1.92 m/h 0 %
23:00:00 clear sky 10.480 10.480 10.480 33 2.05 m/h 0 %

Famous Cities (61)